Ulan-Ude Airport (Mukhino)
UIUU : now visible

Airfield :











YOU CAN JOIN US ON...

 
LOGIN :

Register | Disclaimer

   EN    FR    IT 

 









Legend :    VFR   Marginal VFR   IFR   Intensive IFR   Very Intensive IFR
Visi :
Ceiling :
>= 8 km
>= 3000ft
5 to 8 km
1000 to 3000 ft
1500m to 5 km
500 to 1000 ft
800 to 1500m
200 to 500 ft
< 800m
< 200 ft
Symbols :   Thunderstorms  Fog  Heavy snow  Heavy precipitations  Wind > 20 kt






- Airport Elevation : 1690 ft
- IATA code : UUD


UIUU - Ulan-Ude (Mukhino)

CURRENT METAR :
  • 081230Z 01007MPS 9999 NSC 11/M06 Q1024 R08/CLRD60 NOSIG RMK QFE722/0963

EXPIRED METARs :
  • 081200Z 02005MPS 9999 NSC 11/M06 Q1024 R08/CLRD60 NOSIG RMK QFE722/0963
  • 081130Z 03004MPS 9999 NSC 11/M06 Q1023 R08/CLRD60 NOSIG RMK QFE722/0962
  • 081100Z 07005MPS 9999 NSC 14/M10 Q1023 R08/CLRD60 NOSIG RMK QFE721/0962
  • 081030Z 08007MPS 9999 NSC 15/M10 Q1023 R08/60D NOSIG RMK QFE721/0962
  • 081000Z 06006MPS 9999 NSC 16/M10 Q1022 R08/CLRD60 NOSIG RMK QFE721/0961

TAF TAF UIUU
Valid from the 08 at 12:00 until the 09 at 12:00 UTC


081100Z 0812/0912 09005G10MPS 9999 NSC
TEMPO 0812/0903 03003G08MPS



MET'MAP, your aeronautical weather chart ! - Copyright ORBIFLY December 2007 - Disclaimer

ORBIFLY MET'MAP TEAM :

Programming & Development : Alexandra Zaïnal
Concept & original design : Baudouin d'Aumeries
Assistance for programming : Marc-Olivier Méhu
Technical & hardware support : Manuel Goepfert

Contact : metmap@orbifly.com




SOURCES & CREDITS :

   NOAA       Earth
Advisory